createdAt,value
2018-09-29T00:01:12.164Z,6.10
2018-09-29T00:03:47.692Z,5.30
2018-09-29T00:06:23.562Z,6.20
2018-09-29T00:08:58.897Z,7.80
2018-09-29T00:11:34.759Z,7.17
2018-09-29T00:14:11.609Z,8.43
2018-09-29T00:16:47.313Z,7.90
2018-09-29T00:19:22.515Z,7.80
2018-09-29T00:21:58.198Z,7.27
2018-09-29T00:24:33.904Z,7.83
2018-09-29T00:27:09.505Z,9.00
2018-09-29T00:29:45.162Z,8.50
2018-09-29T00:32:21.042Z,9.13
2018-09-29T00:34:56.553Z,8.50
2018-09-29T00:37:32.951Z,9.27
2018-09-29T00:40:08.396Z,9.13
2018-09-29T00:42:45.040Z,9.73
2018-09-29T00:45:20.812Z,11.17
2018-09-29T00:47:56.389Z,8.77
2018-09-29T00:50:32.214Z,9.37
2018-09-29T00:53:08.069Z,8.63
2018-09-29T00:55:44.548Z,8.87
2018-09-29T00:58:20.236Z,8.53
2018-09-29T01:00:56.013Z,9.80
2018-09-29T01:03:31.349Z,9.67
2018-09-29T01:06:07.313Z,9.17
2018-09-29T01:08:43.345Z,9.27
2018-09-29T01:11:18.622Z,8.47
2018-09-29T01:13:54.458Z,8.50
2018-09-29T01:16:30.085Z,8.43
2018-09-29T01:19:05.755Z,8.67
2018-09-29T01:21:41.799Z,8.03
2018-09-29T01:24:17.257Z,8.77
2018-09-29T01:26:52.740Z,7.87
2018-09-29T01:29:28.792Z,8.50
2018-09-29T01:32:04.262Z,8.10
2018-09-29T01:34:40.272Z,9.10
2018-09-29T01:37:15.965Z,8.83
2018-09-29T01:39:51.457Z,8.23
2018-09-29T01:42:26.970Z,7.77
2018-09-29T01:45:02.719Z,8.80
2018-09-29T01:47:38.508Z,9.10
2018-09-29T01:50:14.214Z,9.20
2018-09-29T01:52:50.460Z,7.93
2018-09-29T01:55:26.746Z,7.87
2018-09-29T01:58:02.561Z,8.70
2018-09-29T02:00:38.913Z,7.57
2018-09-29T02:03:14.862Z,9.00
2018-09-29T02:05:50.737Z,7.93
2018-09-29T02:08:26.372Z,9.30
2018-09-29T02:11:02.649Z,7.30
2018-09-29T02:13:38.739Z,7.47
2018-09-29T02:16:14.577Z,9.43
2018-09-29T02:18:51.223Z,7.30
2018-09-29T02:21:26.880Z,6.93
2018-09-29T02:24:02.769Z,8.40
2018-09-29T02:26:38.463Z,8.00
2018-09-29T02:29:14.269Z,6.90
2018-09-29T02:31:49.939Z,6.23
2018-09-29T02:34:25.701Z,7.10
2018-09-29T02:37:01.167Z,6.50
2018-09-29T02:39:37.052Z,6.70
2018-09-29T02:42:12.774Z,6.47
2018-09-29T02:44:48.528Z,6.37
2018-09-29T02:47:24.193Z,5.30
2018-09-29T02:50:00.218Z,5.90
2018-09-29T02:52:35.876Z,6.17
2018-09-29T02:55:11.734Z,6.40
2018-09-29T02:57:47.394Z,5.53
2018-09-29T03:00:22.865Z,5.47
2018-09-29T03:03:02.564Z,5.33
2018-09-29T03:05:38.173Z,4.93
2018-09-29T03:08:13.997Z,5.70
2018-09-29T03:10:49.941Z,5.60
2018-09-29T03:13:25.681Z,5.83
2018-09-29T03:16:01.083Z,5.50
2018-09-29T03:18:36.972Z,5.23
2018-09-29T03:21:12.362Z,5.13
2018-09-29T03:23:48.725Z,6.37
2018-09-29T03:26:24.040Z,5.83
2018-09-29T03:28:59.797Z,6.27
2018-09-29T03:31:35.464Z,6.73
2018-09-29T03:34:11.252Z,6.47
2018-09-29T03:36:47.449Z,6.20
2018-09-29T03:39:24.408Z,6.00
2018-09-29T03:42:00.935Z,6.63
2018-09-29T03:44:37.891Z,7.00
2018-09-29T03:47:15.266Z,7.30
2018-09-29T03:49:51.901Z,6.40
2018-09-29T03:52:30.628Z,6.73
2018-09-29T03:55:06.083Z,6.17
2018-09-29T03:57:43.742Z,7.10
2018-09-29T04:00:19.826Z,7.87
2018-09-29T04:02:55.388Z,7.57
2018-09-29T04:05:32.500Z,7.30
2018-09-29T04:08:08.968Z,8.60
2018-09-29T04:10:45.906Z,8.03
2018-09-29T04:13:22.537Z,7.00
2018-09-29T04:16:03.623Z,7.00
2018-09-29T04:18:41.608Z,7.93
2018-09-29T04:21:18.534Z,6.93
2018-09-29T04:23:54.644Z,7.47
2018-09-29T04:26:31.280Z,7.30
2018-09-29T04:29:06.965Z,7.13
2018-09-29T04:31:43.821Z,7.80
2018-09-29T04:34:20.185Z,7.40
2018-09-29T04:36:55.715Z,7.23
2018-09-29T04:39:33.258Z,7.00
2018-09-29T04:42:11.942Z,7.67
2018-09-29T04:44:48.192Z,8.97
2018-09-29T04:47:25.920Z,6.90
2018-09-29T04:50:02.633Z,7.07
2018-09-29T04:52:39.873Z,6.77
2018-09-29T04:55:18.682Z,7.17
2018-09-29T04:57:55.358Z,7.33
2018-09-29T05:00:32.554Z,7.50
2018-09-29T05:03:10.751Z,7.37
2018-09-29T05:05:46.862Z,7.43
2018-09-29T05:08:24.549Z,7.30
2018-09-29T05:11:00.710Z,7.20
2018-09-29T05:13:36.337Z,7.17
2018-09-29T05:16:11.969Z,7.10
2018-09-29T05:18:47.794Z,8.20
2018-09-29T05:21:22.745Z,7.37
2018-09-29T05:23:58.951Z,6.70
2018-09-29T05:26:34.623Z,7.80
2018-09-29T05:29:10.617Z,7.10
2018-09-29T05:31:46.073Z,7.63
2018-09-29T05:34:21.564Z,7.70
2018-09-29T05:36:57.064Z,6.67
2018-09-29T05:39:34.063Z,7.60
2018-09-29T05:42:09.870Z,9.67
2018-09-29T05:44:46.147Z,6.80
2018-09-29T05:47:22.301Z,7.77
2018-09-29T05:49:57.930Z,8.00
2018-09-29T05:52:33.554Z,7.50
2018-09-29T05:55:09.184Z,6.20
2018-09-29T05:57:44.842Z,6.97
2018-09-29T06:00:20.042Z,7.40
2018-09-29T06:02:56.012Z,7.43
2018-09-29T06:05:32.002Z,7.60
2018-09-29T06:08:07.248Z,7.37
2018-09-29T06:10:43.194Z,7.67
2018-09-29T06:13:18.593Z,7.07
2018-09-29T06:15:54.349Z,7.57
2018-09-29T06:18:30.176Z,9.90
2018-09-29T06:21:05.742Z,7.40
2018-09-29T06:23:41.573Z,8.50
2018-09-29T06:26:17.200Z,8.00
2018-09-29T06:28:53.151Z,7.53
2018-09-29T06:31:28.657Z,7.90
2018-09-29T06:34:04.230Z,8.00
2018-09-29T06:36:40.311Z,10.57
2018-09-29T06:39:15.912Z,10.17
2018-09-29T06:41:51.080Z,10.90
2018-09-29T06:44:27.016Z,22.17
2018-09-29T06:47:02.665Z,9.30
2018-09-29T06:49:38.537Z,8.77
2018-09-29T06:52:15.548Z,8.70
2018-09-29T06:54:51.465Z,9.47
2018-09-29T06:57:26.878Z,8.57
2018-09-29T07:00:02.629Z,8.60
2018-09-29T07:02:38.413Z,8.40
2018-09-29T07:05:14.229Z,8.60
2018-09-29T07:07:49.370Z,8.93
2018-09-29T07:10:27.000Z,8.40
2018-09-29T07:13:02.613Z,9.10
2018-09-29T07:15:37.960Z,8.70
2018-09-29T07:18:13.656Z,8.30
2018-09-29T07:20:49.618Z,7.43
2018-09-29T07:23:25.715Z,7.53
2018-09-29T07:26:00.844Z,9.13
2018-09-29T07:28:36.609Z,7.10
2018-09-29T07:31:12.356Z,7.93
2018-09-29T07:33:47.927Z,8.20
2018-09-29T07:36:23.701Z,7.67
2018-09-29T07:38:59.434Z,7.90
2018-09-29T07:41:35.589Z,7.17
2018-09-29T07:44:11.778Z,10.37
2018-09-29T07:46:47.679Z,7.97
2018-09-29T07:49:23.379Z,7.50
2018-09-29T07:51:58.780Z,7.80
2018-09-29T07:54:34.423Z,7.67
2018-09-29T07:57:10.299Z,7.10
2018-09-29T07:59:46.171Z,7.03
2018-09-29T08:02:21.605Z,8.00
2018-09-29T08:04:58.096Z,7.80
2018-09-29T08:07:33.770Z,8.00
2018-09-29T08:10:09.933Z,7.77
2018-09-29T08:12:45.923Z,8.57
2018-09-29T08:15:21.959Z,8.10
2018-09-29T08:17:57.859Z,9.07
2018-09-29T08:20:33.756Z,8.37
2018-09-29T08:23:09.263Z,9.20
2018-09-29T08:25:45.099Z,8.03
2018-09-29T08:28:20.407Z,7.43
2018-09-29T08:30:56.280Z,7.90
2018-09-29T08:33:32.047Z,7.57
2018-09-29T08:36:08.495Z,8.17
2018-09-29T08:38:44.022Z,7.03
2018-09-29T08:41:20.223Z,5.53
2018-09-29T08:43:55.681Z,6.60
2018-09-29T08:46:31.450Z,5.07
2018-09-29T08:49:07.633Z,5.43
2018-09-29T08:51:43.870Z,6.00
2018-09-29T08:54:19.356Z,5.70
2018-09-29T08:56:54.852Z,5.83
2018-09-29T08:59:30.813Z,6.33
2018-09-29T09:02:06.913Z,7.03
2018-09-29T09:04:42.312Z,6.43
2018-09-29T09:07:18.247Z,5.50
2018-09-29T09:09:54.365Z,5.43
2018-09-29T09:12:31.333Z,6.20
2018-09-29T09:15:07.530Z,7.43
2018-09-29T09:17:43.373Z,7.37
2018-09-29T09:20:19.891Z,7.67
2018-09-29T09:22:56.619Z,7.80
2018-09-29T09:25:32.135Z,7.67
2018-09-29T09:28:08.183Z,6.93
2018-09-29T09:30:43.947Z,7.17
2018-09-29T09:33:19.234Z,6.80
2018-09-29T09:35:55.324Z,7.07
2018-09-29T09:38:31.171Z,6.20
2018-09-29T09:41:07.394Z,7.00
2018-09-29T09:43:43.287Z,6.63
2018-09-29T09:46:18.618Z,8.20
2018-09-29T09:48:54.504Z,6.50
2018-09-29T09:51:30.080Z,7.40
2018-09-29T09:54:05.407Z,9.20
2018-09-29T09:56:41.229Z,7.70
2018-09-29T09:59:16.672Z,7.10
2018-09-29T10:01:57.720Z,10.10
2018-09-29T10:04:33.355Z,6.20
2018-09-29T10:07:08.754Z,6.10
2018-09-29T10:09:44.522Z,6.73
2018-09-29T10:12:20.576Z,9.73
2018-09-29T10:14:56.321Z,6.10
2018-09-29T10:17:32.139Z,6.03
2018-09-29T10:20:08.866Z,7.77
2018-09-29T10:22:45.126Z,6.73
2018-09-29T10:25:22.113Z,7.07
2018-09-29T10:28:01.350Z,7.50
2018-09-29T10:30:37.253Z,7.40
2018-09-29T10:33:13.163Z,7.90
2018-09-29T10:35:49.625Z,8.67
2018-09-29T10:38:24.818Z,8.17
2018-09-29T10:41:00.633Z,8.93
2018-09-29T10:43:37.748Z,7.53
2018-09-29T10:46:14.120Z,8.10
2018-09-29T10:48:50.596Z,8.23
2018-09-29T10:51:26.565Z,7.80
2018-09-29T10:54:02.133Z,6.63
2018-09-29T10:56:38.173Z,6.53
2018-09-29T10:59:13.633Z,6.67
2018-09-29T11:01:49.537Z,6.27
2018-09-29T11:04:25.111Z,6.53
2018-09-29T11:07:01.054Z,6.70
2018-09-29T11:09:36.278Z,6.90
2018-09-29T11:12:12.438Z,7.40
2018-09-29T11:14:47.941Z,8.50
2018-09-29T11:17:23.752Z,8.20
2018-09-29T11:20:00.930Z,7.30
2018-09-29T11:22:36.908Z,11.90
2018-09-29T11:25:12.822Z,9.60
2018-09-29T11:27:50.375Z,9.53
2018-09-29T11:30:31.309Z,8.67
2018-09-29T11:33:10.856Z,8.83
2018-09-29T11:35:49.351Z,9.23
2018-09-29T11:38:28.108Z,10.20
2018-09-29T11:41:05.922Z,10.43
2018-09-29T11:43:45.571Z,10.07
2018-09-29T11:46:23.062Z,10.60
2018-09-29T11:48:59.252Z,8.80
2018-09-29T11:51:37.386Z,9.80
2018-09-29T11:54:12.977Z,10.50
2018-09-29T11:56:50.572Z,10.27
2018-09-29T11:59:27.440Z,11.30
2018-09-29T12:02:03.464Z,10.47
2018-09-29T12:04:39.002Z,11.53
2018-09-29T12:07:14.864Z,11.20
2018-09-29T12:09:50.601Z,9.40
2018-09-29T12:12:26.277Z,9.47
2018-09-29T12:15:02.839Z,9.00
2018-09-29T12:17:38.544Z,9.00
2018-09-29T12:20:14.509Z,11.33
2018-09-29T12:22:49.893Z,8.83
2018-09-29T12:25:26.872Z,9.03
2018-09-29T12:28:02.233Z,10.13
2018-09-29T12:30:38.802Z,8.80
2018-09-29T12:33:14.976Z,7.30
2018-09-29T12:35:50.678Z,7.63
2018-09-29T12:38:26.444Z,8.33
2018-09-29T12:41:03.628Z,7.70
2018-09-29T12:43:40.797Z,6.53
2018-09-29T12:46:20.569Z,5.90
2018-09-29T12:48:56.066Z,6.10
2018-09-29T12:51:31.787Z,5.30
2018-09-29T12:54:07.569Z,5.50
2018-09-29T12:56:49.108Z,4.80
2018-09-29T12:59:27.906Z,5.13
2018-09-29T13:02:06.854Z,5.23
2018-09-29T13:04:48.592Z,5.23
2018-09-29T13:07:24.765Z,5.73
2018-09-29T13:10:00.784Z,5.27
2018-09-29T13:12:36.949Z,6.00
2018-09-29T13:15:12.831Z,6.27
2018-09-29T13:17:49.646Z,6.90
2018-09-29T13:20:26.202Z,6.80
2018-09-29T13:23:02.155Z,6.50
2018-09-29T13:25:38.236Z,6.40
2018-09-29T13:28:13.908Z,5.90
2018-09-29T13:30:49.573Z,5.87
2018-09-29T13:33:25.392Z,5.70
2018-09-29T13:36:01.362Z,6.17
2018-09-29T13:38:37.771Z,6.47
2018-09-29T13:41:13.649Z,6.03
2018-09-29T13:43:51.238Z,6.43
2018-09-29T13:46:27.403Z,5.80
2018-09-29T13:49:03.741Z,6.17
2018-09-29T13:51:39.807Z,6.07
2018-09-29T13:54:15.360Z,6.37
2018-09-29T13:56:51.165Z,6.20
2018-09-29T13:59:26.825Z,5.87
2018-09-29T14:02:03.106Z,5.20
2018-09-29T14:04:38.629Z,5.50
2018-09-29T14:07:14.327Z,5.70
2018-09-29T14:09:49.947Z,5.70
2018-09-29T14:12:25.610Z,5.40
2018-09-29T14:15:01.294Z,5.30
2018-09-29T14:17:36.753Z,5.80
2018-09-29T14:20:12.993Z,5.33
2018-09-29T14:22:48.492Z,5.77
2018-09-29T14:25:24.258Z,5.27
2018-09-29T14:28:00.117Z,5.90
2018-09-29T14:30:35.889Z,4.80
2018-09-29T14:33:11.488Z,6.00
2018-09-29T14:35:47.375Z,5.00
2018-09-29T14:38:23.024Z,5.30
2018-09-29T14:40:58.471Z,6.03
2018-09-29T14:43:34.122Z,5.10
2018-09-29T14:46:09.960Z,5.30
2018-09-29T14:48:45.658Z,4.70
2018-09-29T14:51:21.211Z,5.83
2018-09-29T14:53:56.850Z,5.00
2018-09-29T14:56:32.915Z,4.80
2018-09-29T14:59:08.565Z,4.73
2018-09-29T15:01:44.447Z,4.90
2018-09-29T15:04:20.775Z,4.70
2018-09-29T15:06:56.784Z,5.13
2018-09-29T15:09:32.915Z,4.77
2018-09-29T15:12:09.496Z,4.63
2018-09-29T15:14:45.448Z,5.40
2018-09-29T15:17:21.282Z,4.97
2018-09-29T15:19:56.817Z,4.57
2018-09-29T15:22:32.614Z,4.40
2018-09-29T15:25:08.172Z,5.17
2018-09-29T15:27:43.834Z,4.43
2018-09-29T15:30:19.916Z,4.20
2018-09-29T15:32:55.230Z,4.87
2018-09-29T15:35:30.905Z,4.30
2018-09-29T15:38:06.698Z,4.60
2018-09-29T15:40:42.564Z,5.13
2018-09-29T15:43:17.957Z,4.60
2018-09-29T15:45:53.348Z,4.73
2018-09-29T15:48:29.304Z,5.07
2018-09-29T15:51:04.805Z,4.53
2018-09-29T15:53:40.722Z,4.80
2018-09-29T15:56:16.231Z,5.07
2018-09-29T15:58:52.865Z,4.47
2018-09-29T16:01:28.744Z,5.03
2018-09-29T16:04:04.597Z,4.20
2018-09-29T16:06:39.957Z,4.93
2018-09-29T16:09:15.720Z,4.20
2018-09-29T16:11:51.386Z,4.13
2018-09-29T16:14:27.188Z,5.07
2018-09-29T16:17:02.834Z,4.57
2018-09-29T16:19:39.257Z,4.80
2018-09-29T16:22:15.485Z,4.83
2018-09-29T16:24:51.089Z,4.90
2018-09-29T16:27:26.753Z,5.20
2018-09-29T16:30:02.522Z,5.27
2018-09-29T16:32:38.839Z,5.07
2018-09-29T16:35:14.851Z,4.10
2018-09-29T16:37:50.038Z,5.00
2018-09-29T16:40:26.113Z,5.27
2018-09-29T16:43:01.881Z,4.97
2018-09-29T16:45:37.433Z,4.97
2018-09-29T16:48:13.018Z,4.73
2018-09-29T16:50:48.874Z,5.03
2018-09-29T16:53:24.465Z,4.90
2018-09-29T16:56:00.262Z,5.53
2018-09-29T16:58:35.786Z,5.53
2018-09-29T17:01:11.456Z,5.33
2018-09-29T17:03:48.193Z,5.20
2018-09-29T17:06:24.048Z,5.97
2018-09-29T17:09:00.191Z,5.40
2018-09-29T17:11:35.876Z,5.13
2018-09-29T17:14:11.647Z,5.60
2018-09-29T17:16:47.171Z,5.13
2018-09-29T17:19:22.767Z,5.70
2018-09-29T17:22:00.462Z,6.30
2018-09-29T17:24:36.345Z,5.30
2018-09-29T17:27:11.548Z,6.87
2018-09-29T17:29:47.729Z,6.20
2018-09-29T17:32:22.817Z,5.97
2018-09-29T17:34:58.430Z,5.47
2018-09-29T17:37:34.734Z,6.13
2018-09-29T17:40:10.009Z,5.93
2018-09-29T17:42:45.376Z,6.23
2018-09-29T17:45:21.325Z,5.83
2018-09-29T17:47:56.676Z,6.90
2018-09-29T17:50:33.054Z,6.50
2018-09-29T17:53:08.416Z,5.90
2018-09-29T17:55:44.394Z,6.40
2018-09-29T17:58:19.734Z,5.70
2018-09-29T18:00:55.413Z,6.67
2018-09-29T18:03:43.384Z,7.33
2018-09-29T18:06:18.875Z,6.33
2018-09-29T18:08:58.741Z,6.07
2018-09-29T18:11:34.537Z,7.70
2018-09-29T18:14:18.441Z,6.23
2018-09-29T18:16:56.417Z,6.83
2018-09-29T18:19:35.227Z,7.53
2018-09-29T18:22:13.820Z,6.53
2018-09-29T18:24:50.607Z,7.07
2018-09-29T18:27:27.302Z,6.70
2018-09-29T18:30:05.298Z,6.77
2018-09-29T18:32:41.991Z,7.27
2018-09-29T18:35:19.337Z,5.90
2018-09-29T18:37:57.521Z,7.20
2018-09-29T18:40:33.856Z,6.70
2018-09-29T18:43:11.648Z,7.17
2018-09-29T18:45:48.549Z,7.13
2018-09-29T18:48:25.625Z,6.20
2018-09-29T18:51:03.399Z,7.67
2018-09-29T18:53:40.839Z,6.30
2018-09-29T18:56:18.933Z,6.30
2018-09-29T18:58:57.825Z,7.67
2018-09-29T19:01:35.468Z,7.07
2018-09-29T19:04:13.812Z,6.77
2018-09-29T19:06:51.439Z,8.63
2018-09-29T19:09:29.856Z,7.80
2018-09-29T19:12:06.426Z,6.67
2018-09-29T19:14:42.765Z,6.47
2018-09-29T19:17:19.305Z,6.43
2018-09-29T19:19:56.633Z,6.47
2018-09-29T19:22:34.235Z,7.70
2018-09-29T19:25:12.509Z,6.70
2018-09-29T19:27:50.269Z,7.93
2018-09-29T19:30:26.752Z,6.23
2018-09-29T19:33:05.795Z,6.93
2018-09-29T19:35:42.289Z,7.47
2018-09-29T19:38:18.721Z,7.00
2018-09-29T19:40:57.210Z,5.73
2018-09-29T19:43:35.422Z,6.20
2018-09-29T19:46:13.136Z,7.00
2018-09-29T19:48:49.805Z,5.93
2018-09-29T19:51:26.173Z,5.93
2018-09-29T19:54:03.433Z,5.90
2018-09-29T19:56:39.641Z,7.23
2018-09-29T19:59:19.141Z,7.13
2018-09-29T20:01:57.322Z,6.50
2018-09-29T20:04:36.446Z,7.27
2018-09-29T20:07:11.974Z,6.00
2018-09-29T20:09:48.489Z,6.00
2018-09-29T20:12:24.869Z,6.80
2018-09-29T20:15:01.421Z,8.47
2018-09-29T20:17:40.338Z,6.20
2018-09-29T20:20:17.613Z,6.30
2018-09-29T20:22:53.176Z,7.37
2018-09-29T20:25:28.750Z,8.10
2018-09-29T20:28:06.442Z,8.97
2018-09-29T20:30:43.744Z,6.87
2018-09-29T20:33:20.708Z,6.20
2018-09-29T20:35:57.460Z,7.70
2018-09-29T20:38:36.513Z,7.07
2018-09-29T20:41:14.744Z,5.97
2018-09-29T20:43:51.500Z,8.60
2018-09-29T20:46:29.920Z,6.23
2018-09-29T20:49:07.375Z,4.80
2018-09-29T20:51:44.379Z,6.83
2018-09-29T20:54:21.529Z,5.23
2018-09-29T20:57:00.661Z,5.50
2018-09-29T20:59:37.665Z,5.33
2018-09-29T21:02:13.866Z,5.07
2018-09-29T21:04:50.212Z,5.10
2018-09-29T21:07:27.185Z,5.70
2018-09-29T21:10:03.796Z,6.47
2018-09-29T21:12:40.641Z,8.03
2018-09-29T21:15:19.338Z,6.03
2018-09-29T21:17:56.513Z,6.33
2018-09-29T21:20:32.793Z,6.53
2018-09-29T21:23:09.390Z,7.17
2018-09-29T21:25:45.797Z,5.10
2018-09-29T21:28:23.441Z,5.70
2018-09-29T21:31:01.521Z,5.40
2018-09-29T21:33:39.784Z,6.40
2018-09-29T21:36:16.324Z,7.30
2018-09-29T21:38:53.350Z,7.17
2018-09-29T21:41:30.745Z,5.60
2018-09-29T21:44:07.748Z,5.50
2018-09-29T21:46:44.753Z,5.67
2018-09-29T21:49:23.211Z,5.90
2018-09-29T21:51:59.025Z,5.93
2018-09-29T21:54:36.048Z,5.70
2018-09-29T21:57:12.097Z,6.30
2018-09-29T21:59:49.672Z,5.50
2018-09-29T22:02:26.563Z,7.07
2018-09-29T22:05:03.881Z,6.30
2018-09-29T22:07:40.586Z,5.60
2018-09-29T22:10:16.319Z,6.30
2018-09-29T22:12:55.345Z,5.20
2018-09-29T22:15:32.622Z,6.07
2018-09-29T22:18:08.620Z,7.20
2018-09-29T22:20:46.101Z,7.77
2018-09-29T22:23:24.479Z,6.30
2018-09-29T22:26:03.476Z,6.67
2018-09-29T22:28:41.265Z,6.83
2018-09-29T22:31:19.328Z,6.20
2018-09-29T22:33:58.953Z,6.50
2018-09-29T22:36:35.827Z,6.70
2018-09-29T22:39:13.408Z,5.43
2018-09-29T22:41:51.577Z,6.80
2018-09-29T22:44:29.016Z,6.37
2018-09-29T22:47:06.480Z,9.07
2018-09-29T22:49:44.387Z,6.70
2018-09-29T22:52:20.282Z,7.87
2018-09-29T22:54:56.032Z,5.40
2018-09-29T22:57:33.348Z,5.70
2018-09-29T23:00:09.701Z,6.30
2018-09-29T23:02:48.013Z,6.80
2018-09-29T23:05:25.585Z,9.40
2018-09-29T23:08:02.015Z,6.00
2018-09-29T23:10:40.333Z,6.13
2018-09-29T23:13:18.341Z,6.07
2018-09-29T23:15:56.494Z,5.90
2018-09-29T23:18:33.248Z,5.53
2018-09-29T23:21:10.891Z,6.47
2018-09-29T23:23:48.472Z,5.47
2018-09-29T23:26:25.238Z,5.87
2018-09-29T23:29:05.426Z,12.20
2018-09-29T23:31:42.015Z,6.70
2018-09-29T23:34:19.237Z,7.10
2018-09-29T23:36:57.148Z,7.73
2018-09-29T23:39:33.948Z,7.40
2018-09-29T23:42:12.404Z,7.87
2018-09-29T23:44:48.816Z,7.27
2018-09-29T23:47:25.676Z,6.20
2018-09-29T23:50:03.855Z,6.30
2018-09-29T23:52:42.413Z,5.90
2018-09-29T23:55:21.389Z,4.73
2018-09-29T23:57:57.697Z,6.10
